Time;durP1;ratioP1;P1;durP2;ratioP2;P2;SDS_P1;SDS_P2;PMS_P1;PMS_P2;Temp;Humidity;BMP_temperature;BMP_pressure;BME280_temperature;BME280_humidity;BME280_pressure;Samples;Min_cycle;Max_cycle;Signal;HPM_P1;HPM_P2
2023/03/20 00:01:23;;;;;;;;;;;;;;;1.87;67.80;101023.58;108361;1253;72154;-64
2023/03/20 00:03:51;;;;;;;;;;;;;;;1.89;67.89;101025.67;108356;1254;62457;-64
2023/03/20 00:06:21;;;;;;;;;;;;;;;1.90;68.12;101023.63;108229;1253;60435;-64
2023/03/20 00:08:52;;;;;;;;;;;;;;;1.92;68.30;101020.91;108288;1253;74100;-64
2023/03/20 00:11:25;;;;;;;;;;;;;;;1.94;68.25;101024.02;108263;1254;71741;-66
2023/03/20 00:13:57;;;;;;;;;;;;;;;1.97;68.37;101021.08;108329;1254;72090;-63
2023/03/20 00:16:26;;;;;;;;;;;;;;;1.99;68.57;101023.92;108247;1254;62203;-64
2023/03/20 00:18:55;;;;;;;;;;;;;;;2.03;68.74;101022.58;108382;1253;61174;-64
2023/03/20 00:21:29;;;;;;;;;;;;;;;2.07;68.79;101016.83;108388;1253;73478;-66
2023/03/20 00:23:59;;;;;;;;;;;;;;;2.11;69.02;101014.02;108333;1254;73923;-64
2023/03/20 00:26:45;;;;;;;;;;;;;;;2.16;69.13;101011.70;108362;1253;71242;-64
2023/03/20 00:29:23;;;;;;;;;;;;;;;2.19;69.38;101010.23;108284;1254;61487;-65
2023/03/20 00:31:52;;;;;;;;;;;;;;;2.13;69.35;101008.68;108210;1253;60334;-64
2023/03/20 00:34:22;;;;;;;;;;;;;;;2.10;69.69;101005.58;108338;1252;72013;-64
2023/03/20 00:36:51;;;;;;;;;;;;;;;2.15;69.91;101005.46;108415;1253;73710;-64
2023/03/20 00:39:19;;;;;;;;;;;;;;;2.18;69.85;101000.13;108278;1254;73206;-64
2023/03/20 00:41:49;;;;;;;;;;;;;;;2.20;69.81;100994.60;108344;1252;60386;-65
2023/03/20 00:44:18;;;;;;;;;;;;;;;2.10;69.55;100998.33;108205;1253;60951;-65
2023/03/20 00:46:53;;;;;;;;;;;;;;;1.95;69.54;100996.98;108372;1254;75517;-64
2023/03/20 00:49:25;;;;;;;;;;;;;;;1.91;69.37;100995.89;108398;1253;73434;-65
2023/03/20 00:52:00;;;;;;;;;;;;;;;1.66;69.87;100993.55;108372;1252;73509;-64
2023/03/20 00:54:31;;;;;;;;;;;;;;;1.53;70.03;100990.95;108241;1252;61090;-64
2023/03/20 00:57:01;;;;;;;;;;;;;;;1.41;70.07;100987.17;108225;1252;60555;-65
2023/03/20 00:59:35;;;;;;;;;;;;;;;1.35;69.96;100988.40;108310;1252;74150;-64
2023/03/20 01:02:03;;;;;;;;;;;;;;;1.47;69.50;100990.77;108402;1253;72774;-63
2023/03/20 01:04:39;;;;;;;;;;;;;;;1.48;69.40;100990.98;108390;1256;73925;-64
2023/03/20 01:07:11;;;;;;;;;;;;;;;1.46;69.33;100994.95;108287;1253;62333;-64
2023/03/20 01:09:41;;;;;;;;;;;;;;;1.38;69.29;100993.23;108379;1253;60424;-64
2023/03/20 01:12:09;;;;;;;;;;;;;;;1.34;69.27;100991.66;108366;1253;72896;-64
2023/03/20 01:14:39;;;;;;;;;;;;;;;1.31;69.29;100988.02;108127;1253;73960;-64
2023/03/20 01:17:16;;;;;;;;;;;;;;;1.30;69.44;100985.27;108179;1254;73882;-64
2023/03/20 01:19:44;;;;;;;;;;;;;;;1.32;69.44;100981.04;108331;1253;61352;-64
2023/03/20 01:22:13;;;;;;;;;;;;;;;1.33;69.38;100980.48;108381;1253;60453;-64
2023/03/20 01:24:41;;;;;;;;;;;;;;;1.33;69.38;100980.13;108397;1253;74975;-65
2023/03/20 01:27:16;;;;;;;;;;;;;;;1.35;69.43;100979.44;108379;1254;73620;-65
2023/03/20 01:29:45;;;;;;;;;;;;;;;1.35;69.39;100980.66;108354;1252;72500;-65
2023/03/20 01:32:14;;;;;;;;;;;;;;;1.34;69.32;100975.35;108275;1252;60833;-63
2023/03/20 01:34:46;;;;;;;;;;;;;;;1.30;69.06;100977.41;108308;1253;60481;-64
2023/03/20 01:37:22;;;;;;;;;;;;;;;1.22;68.89;100975.61;108396;1253;75014;-64
2023/03/20 01:39:52;;;;;;;;;;;;;;;1.15;68.88;100979.02;108149;1253;73279;-63
2023/03/20 01:42:20;;;;;;;;;;;;;;;1.12;69.02;100976.49;108337;1256;73491;-64
2023/03/20 01:44:49;;;;;;;;;;;;;;;1.12;69.12;100976.69;108386;1252;62453;-64
2023/03/20 01:47:18;;;;;;;;;;;;;;;1.11;69.05;100972.10;108325;1254;60323;-64
2023/03/20 01:50:21;;;;;;;;;;;;;;;1.10;68.95;100971.92;108448;1256;74786;-64
2023/03/20 01:53:03;;;;;;;;;;;;;;;1.05;68.82;100973.92;107933;1254;72383;-63
2023/03/20 01:55:32;;;;;;;;;;;;;;;1.00;68.96;100973.86;108266;1253;72280;-64
2023/03/20 01:58:06;;;;;;;;;;;;;;;0.98;68.81;100978.48;108267;1253;62330;-64
2023/03/20 02:00:35;;;;;;;;;;;;;;;0.95;68.90;100979.02;108230;1253;61039;-65
2023/03/20 02:03:07;;;;;;;;;;;;;;;0.94;68.96;100981.23;108207;1252;74076;-64
2023/03/20 02:05:54;;;;;;;;;;;;;;;0.92;68.78;100987.16;108288;1254;73044;-64
2023/03/20 02:08:30;;;;;;;;;;;;;;;0.87;68.84;100989.53;108381;1253;73493;-65
2023/03/20 02:11:01;;;;;;;;;;;;;;;0.86;68.87;100984.70;108349;1253;61305;-64
2023/03/20 02:13:31;;;;;;;;;;;;;;;0.89;68.92;100987.77;108170;1252;60507;-64
2023/03/20 02:16:07;;;;;;;;;;;;;;;0.92;69.01;100991.08;108295;1253;74789;-65
2023/03/20 02:18:50;;;;;;;;;;;;;;;0.95;68.95;100990.20;108405;1256;73410;-64
2023/03/20 02:21:39;;;;;;;;;;;;;;;0.99;69.30;100990.73;108233;1254;72745;-65
2023/03/20 02:24:14;;;;;;;;;;;;;;;1.06;69.36;100989.96;108209;1252;61419;-65
2023/03/20 02:26:53;;;;;;;;;;;;;;;1.11;69.46;100991.98;108373;1254;60292;-66
2023/03/20 02:29:34;;;;;;;;;;;;;;;1.16;69.77;100991.54;108335;1254;74233;-64
2023/03/20 02:32:22;;;;;;;;;;;;;;;1.21;69.68;100990.30;108206;1252;73508;-65
2023/03/20 02:34:54;;;;;;;;;;;;;;;1.26;69.88;100987.94;108127;1252;73198;-64
2023/03/20 02:37:32;;;;;;;;;;;;;;;1.28;69.68;100988.20;108330;1253;62219;-64
2023/03/20 02:40:07;;;;;;;;;;;;;;;1.25;69.58;100988.33;108432;1253;60395;-65
2023/03/20 02:42:40;;;;;;;;;;;;;;;1.13;69.16;100986.09;108222;1253;72946;-65
2023/03/20 02:45:12;;;;;;;;;;;;;;;0.96;69.09;100988.30;108187;1253;73928;-64
2023/03/20 02:48:03;;;;;;;;;;;;;;;0.78;69.16;100987.10;108468;1253;72761;-64
2023/03/20 02:50:37;;;;;;;;;;;;;;;0.61;69.12;100984.56;108231;1253;62011;-65
2023/03/20 02:53:21;;;;;;;;;;;;;;;0.39;68.99;100982.63;108295;1257;61091;-65
2023/03/20 02:55:56;;;;;;;;;;;;;;;0.15;69.13;100983.63;108459;1254;74712;-64
2023/03/20 02:58:29;;;;;;;;;;;;;;;-0.03;69.49;100983.42;108265;1254;72101;-65
2023/03/20 03:00:58;;;;;;;;;;;;;;;-0.14;69.64;100977.41;108455;1252;73688;-66
2023/03/20 03:03:37;;;;;;;;;;;;;;;-0.21;69.91;100971.86;108463;1253;61463;-65
2023/03/20 03:06:08;;;;;;;;;;;;;;;-0.30;69.96;100965.16;108279;1253;60411;-63
2023/03/20 03:08:53;;;;;;;;;;;;;;;-0.36;70.10;100963.66;108353;1252;74557;-63
2023/03/20 03:11:42;;;;;;;;;;;;;;;-0.42;70.42;100962.79;108246;1254;72753;-65
2023/03/20 03:14:46;;;;;;;;;;;;;;;-0.42;70.77;100956.33;108337;1256;72578;-63
2023/03/20 03:17:45;;;;;;;;;;;;;;;-0.44;70.68;100955.13;108239;1252;60865;-65
2023/03/20 03:23:46;;;;;;;;;;;;;;;-0.52;71.23;100946.52;108015;1254;74981;-64
2023/03/20 03:26:20;;;;;;;;;;;;;;;-0.54;71.37;100943.41;108146;1253;72797;-64
2023/03/20 03:28:50;;;;;;;;;;;;;;;-0.50;71.50;100940.25;108031;1253;72678;-64
2023/03/20 03:31:18;;;;;;;;;;;;;;;-0.41;71.80;100944.94;108056;1254;61137;-66
2023/03/20 03:33:49;;;;;;;;;;;;;;;-0.31;71.89;100949.19;107982;1254;60968;-63
2023/03/20 03:36:29;;;;;;;;;;;;;;;-0.26;71.75;100945.61;108122;1254;74074;-64
2023/03/20 03:39:00;;;;;;;;;;;;;;;-0.19;71.68;100946.52;108262;1253;73236;-65
2023/03/20 03:41:36;;;;;;;;;;;;;;;-0.15;71.87;100944.64;108037;1253;73868;-64
2023/03/20 03:44:20;;;;;;;;;;;;;;;-0.08;71.83;100943.10;108135;1254;62417;-65
2023/03/20 03:46:59;;;;;;;;;;;;;;;-0.04;71.74;100945.05;108218;1253;61244;-64
2023/03/20 03:49:29;;;;;;;;;;;;;;;0.02;71.76;100943.54;108446;1254;75866;-64
2023/03/20 03:51:59;;;;;;;;;;;;;;;0.08;71.69;100940.77;108115;1254;73761;-65
2023/03/20 03:54:48;;;;;;;;;;;;;;;0.14;71.80;100941.22;108216;1254;72702;-65
2023/03/20 03:57:41;;;;;;;;;;;;;;;0.16;71.75;100944.61;108237;1254;61295;-65
2023/03/20 04:00:13;;;;;;;;;;;;;;;0.17;71.70;100947.56;108089;1253;61660;-66
2023/03/20 04:02:44;;;;;;;;;;;;;;;0.17;71.73;100946.84;108121;1257;74793;-64
2023/03/20 04:05:15;;;;;;;;;;;;;;;0.18;71.74;100943.98;108011;1254;73111;-64
2023/03/20 04:07:46;;;;;;;;;;;;;;;0.24;71.87;100944.13;108140;1254;72052;-64
2023/03/20 04:10:14;;;;;;;;;;;;;;;0.30;71.73;100944.45;108161;1254;61095;-64
2023/03/20 04:12:54;;;;;;;;;;;;;;;0.37;71.68;100945.03;108270;1254;61093;-64
2023/03/20 04:15:22;;;;;;;;;;;;;;;0.42;71.70;100941.23;108163;1254;74409;-65
2023/03/20 04:17:50;;;;;;;;;;;;;;;0.49;71.71;100940.44;108239;1254;72831;-63
2023/03/20 04:20:19;;;;;;;;;;;;;;;0.56;71.67;100940.52;108207;1254;70975;-64
2023/03/20 04:22:48;;;;;;;;;;;;;;;0.62;71.54;100936.24;108104;1254;61232;-64
2023/03/20 04:25:20;;;;;;;;;;;;;;;0.69;71.43;100942.98;108195;1253;61316;-64
2023/03/20 04:27:51;;;;;;;;;;;;;;;0.76;71.64;100946.87;108138;1254;75541;-64
2023/03/20 04:30:27;;;;;;;;;;;;;;;0.85;71.60;100947.90;108131;1257;72445;-64
2023/03/20 04:33:27;;;;;;;;;;;;;;;0.96;71.58;100948.92;107841;1254;73845;-63
2023/03/20 04:36:06;;;;;;;;;;;;;;;1.02;71.59;100951.64;108152;1253;61244;-64
2023/03/20 04:38:35;;;;;;;;;;;;;;;1.04;71.50;100951.17;108079;1254;61298;-64
2023/03/20 04:41:04;;;;;;;;;;;;;;;1.04;71.49;100945.09;108233;1254;74952;-64
2023/03/20 04:43:34;;;;;;;;;;;;;;;0.96;71.18;100942.58;108104;1253;72096;-65
2023/03/20 04:46:03;;;;;;;;;;;;;;;0.86;71.17;100944.52;108245;1254;72947;-63
2023/03/20 04:48:31;;;;;;;;;;;;;;;0.77;71.25;100945.49;108399;1254;61107;-64
2023/03/20 04:51:01;;;;;;;;;;;;;;;0.73;71.20;100948.72;108248;1254;62700;-64
2023/03/20 04:53:40;;;;;;;;;;;;;;;0.67;71.21;100940.77;108210;1254;75595;-65
2023/03/20 04:56:10;;;;;;;;;;;;;;;0.66;71.10;100943.63;108208;1254;71924;-64
2023/03/20 04:58:39;;;;;;;;;;;;;;;0.65;71.20;100946.04;107997;1259;72144;-65
2023/03/20 05:01:09;;;;;;;;;;;;;;;0.62;71.47;100947.64;108002;1254;62146;-64
2023/03/20 05:03:38;;;;;;;;;;;;;;;0.60;71.69;100947.91;108259;1254;61116;-65
2023/03/20 05:06:07;;;;;;;;;;;;;;;0.60;71.51;100949.86;108315;1254;73805;-66
2023/03/20 05:08:36;;;;;;;;;;;;;;;0.62;71.67;100953.92;108287;1254;73325;-65
2023/03/20 05:11:06;;;;;;;;;;;;;;;0.69;71.79;100947.86;108273;1254;72453;-65
2023/03/20 05:14:14;;;;;;;;;;;;;;;0.79;71.78;100948.08;107544;1262;61109;-64
2023/03/20 05:17:11;;;;;;;;;;;;;;;0.90;72.06;100949.30;107257;1267;61356;-65
2023/03/20 05:20:06;;;;;;;;;;;;;;;0.98;72.00;100943.86;107753;1254;75522;-65
2023/03/20 05:22:58;;;;;;;;;;;;;;;1.08;72.22;100948.39;107798;1254;73676;-63
2023/03/20 05:25:44;;;;;;;;;;;;;;;1.22;72.32;100943.77;108112;1258;72621;-64
2023/03/20 05:28:31;;;;;;;;;;;;;;;1.35;72.38;100936.48;108075;1258;61106;-64
2023/03/20 05:31:10;;;;;;;;;;;;;;;1.47;72.52;100939.05;108126;1254;61109;-63
2023/03/20 05:34:01;;;;;;;;;;;;;;;1.58;72.59;100942.69;108214;1257;75818;-64
2023/03/20 05:36:47;;;;;;;;;;;;;;;1.72;72.63;100941.05;108169;1254;72221;-64
2023/03/20 05:39:32;;;;;;;;;;;;;;;1.86;72.67;100937.58;107987;1253;73651;-64
2023/03/20 05:42:18;;;;;;;;;;;;;;;2.00;72.76;100937.70;108208;1254;61498;-65
2023/03/20 05:45:01;;;;;;;;;;;;;;;2.16;72.67;100935.98;108172;1254;61346;-66
2023/03/20 05:47:55;;;;;;;;;;;;;;;2.33;72.78;100940.23;108208;1253;74560;-65
2023/03/20 05:50:25;;;;;;;;;;;;;;;2.49;72.90;100935.09;108143;1254;73117;-64
2023/03/20 05:53:11;;;;;;;;;;;;;;;2.66;72.95;100934.30;108164;1253;73646;-65
2023/03/20 05:56:09;;;;;;;;;;;;;;;2.83;72.84;100933.44;108121;1254;62168;-65
2023/03/20 05:58:41;;;;;;;;;;;;;;;2.94;72.71;100941.16;108186;1254;61314;-64
2023/03/20 06:01:28;;;;;;;;;;;;;;;3.10;72.95;100944.05;108184;1254;75643;-65
2023/03/20 06:04:16;;;;;;;;;;;;;;;3.31;72.82;100942.16;108112;1253;72083;-64
2023/03/20 06:07:03;;;;;;;;;;;;;;;3.51;72.70;100942.41;108201;1254;71969;-65
2023/03/20 06:09:32;;;;;;;;;;;;;;;3.67;72.75;100941.38;108079;1254;61182;-66
2023/03/20 06:12:05;;;;;;;;;;;;;;;3.85;72.78;100942.12;108033;1254;61132;-64
2023/03/20 06:14:34;;;;;;;;;;;;;;;4.03;72.58;100940.09;108052;1254;74135;-65
2023/03/20 06:17:06;;;;;;;;;;;;;;;4.21;72.52;100933.44;108065;1254;73731;-65
2023/03/20 06:19:35;;;;;;;;;;;;;;;4.36;72.44;100934.06;108144;1254;72917;-65
2023/03/20 06:22:04;;;;;;;;;;;;;;;4.51;72.34;100931.85;108021;1254;61200;-64
2023/03/20 06:24:34;;;;;;;;;;;;;;;4.68;72.14;100938.02;108221;1254;61128;-64
2023/03/20 06:27:03;;;;;;;;;;;;;;;4.84;72.16;100937.35;108118;1253;74336;-65
2023/03/20 06:29:32;;;;;;;;;;;;;;;5.00;72.01;100940.87;108244;1254;70605;-65
2023/03/20 06:32:13;;;;;;;;;;;;;;;5.14;71.76;100944.38;108186;1254;73370;-65
2023/03/20 06:34:42;;;;;;;;;;;;;;;5.29;71.69;100949.86;108246;1253;61308;-65
2023/03/20 06:37:16;;;;;;;;;;;;;;;5.43;71.24;100948.27;108187;1254;61122;-65
2023/03/20 06:39:45;;;;;;;;;;;;;;;5.56;71.15;100942.11;108095;1254;72859;-64
2023/03/20 06:42:14;;;;;;;;;;;;;;;5.70;70.73;100939.08;108084;1258;73596;-65
2023/03/20 06:44:43;;;;;;;;;;;;;;;5.85;70.56;100942.36;108143;1254;72268;-65
2023/03/20 06:47:30;;;;;;;;;;;;;;;6.02;70.09;100941.92;108174;1253;61118;-65
2023/03/20 06:50:00;;;;;;;;;;;;;;;6.16;69.68;100941.70;108160;1254;61243;-65
2023/03/20 06:52:31;;;;;;;;;;;;;;;6.29;68.72;100943.70;108231;1253;73705;-65
2023/03/20 06:55:21;;;;;;;;;;;;;;;6.29;67.81;100941.38;108225;1254;72944;-64
2023/03/20 06:57:49;;;;;;;;;;;;;;;6.42;67.67;100940.01;108184;1254;72719;-65
2023/03/20 07:00:20;;;;;;;;;;;;;;;6.53;67.17;100937.75;108219;1254;61240;-65
2023/03/20 07:02:49;;;;;;;;;;;;;;;6.65;66.71;100933.05;108060;1253;61213;-65
2023/03/20 07:05:19;;;;;;;;;;;;;;;6.81;66.47;100932.54;108215;1254;74137;-65
2023/03/20 07:07:51;;;;;;;;;;;;;;;7.00;66.17;100932.42;108218;1254;73114;-65
2023/03/20 07:10:20;;;;;;;;;;;;;;;7.17;65.59;100932.10;108043;1254;72570;-65
2023/03/20 07:12:50;;;;;;;;;;;;;;;7.28;64.90;100933.23;108236;1254;61205;-65
2023/03/20 07:15:37;;;;;;;;;;;;;;;7.35;64.28;100934.45;108244;1254;61246;-66
2023/03/20 07:18:07;;;;;;;;;;;;;;;7.42;64.01;100932.07;108246;1253;75889;-65
2023/03/20 07:20:41;;;;;;;;;;;;;;;7.56;63.78;100932.19;108241;1254;73481;-66
2023/03/20 07:23:10;;;;;;;;;;;;;;;7.71;63.20;100924.96;108291;1254;73584;-65
2023/03/20 07:25:39;;;;;;;;;;;;;;;7.82;62.48;100926.93;108045;1254;61121;-66
2023/03/20 07:28:14;;;;;;;;;;;;;;;7.89;62.00;100925.30;108187;1253;61101;-66
2023/03/20 07:30:45;;;;;;;;;;;;;;;8.02;61.72;100925.23;108352;1258;75151;-66
2023/03/20 07:33:16;;;;;;;;;;;;;;;8.19;61.44;100925.02;108250;1254;73981;-66
2023/03/20 07:35:45;;;;;;;;;;;;;;;8.38;60.80;100924.12;108148;1254;73601;-66
2023/03/20 07:38:13;;;;;;;;;;;;;;;8.57;60.24;100918.96;108007;1256;61221;-66
2023/03/20 07:40:49;;;;;;;;;;;;;;;8.74;59.44;100913.71;108229;1254;61560;-66
2023/03/20 07:43:17;;;;;;;;;;;;;;;8.85;58.89;100908.71;108079;1253;74211;-66
2023/03/20 07:46:25;;;;;;;;;;;;;;;9.02;58.43;100900.46;108227;1253;72513;-66
2023/03/20 07:48:57;;;;;;;;;;;;;;;9.14;57.91;100900.04;108282;1257;72955;-66
2023/03/20 07:51:25;;;;;;;;;;;;;;;9.21;57.49;100899.52;108137;1254;61135;-67
2023/03/20 07:53:53;;;;;;;;;;;;;;;9.30;57.22;100895.00;108126;1253;59949;-68
2023/03/20 07:56:22;;;;;;;;;;;;;;;9.42;56.57;100890.14;108020;1253;74662;-67
2023/03/20 07:58:51;;;;;;;;;;;;;;;9.53;56.51;100885.40;108211;1254;73033;-65
2023/03/20 08:01:19;;;;;;;;;;;;;;;9.62;56.32;100885.35;108250;1253;73843;-65
2023/03/20 08:03:48;;;;;;;;;;;;;;;9.74;56.13;100880.52;108227;1253;61107;-66
2023/03/20 08:06:27;;;;;;;;;;;;;;;9.84;55.70;100875.61;108252;1254;61120;-65
2023/03/20 08:08:57;;;;;;;;;;;;;;;9.97;55.48;100873.08;108288;1254;74536;-66
2023/03/20 08:11:27;;;;;;;;;;;;;;;10.10;55.06;100871.34;108272;1254;72564;-67
2023/03/20 08:13:55;;;;;;;;;;;;;;;10.19;54.33;100871.35;108269;1254;73221;-66
2023/03/20 08:16:24;;;;;;;;;;;;;;;10.27;54.25;100875.22;108223;1254;60180;-67
2023/03/20 08:18:55;;;;;;;;;;;;;;;10.38;53.50;100878.79;108281;1254;61316;-67
2023/03/20 08:21:23;;;;;;;;;;;;;;;10.48;53.00;100877.69;108291;1254;74861;-67
2023/03/20 08:23:51;;;;;;;;;;;;;;;10.59;52.77;100880.07;108270;1254;72982;-67
2023/03/20 08:26:20;;;;;;;;;;;;;;;10.73;52.71;100881.52;108228;1254;73676;-67
2023/03/20 08:28:48;;;;;;;;;;;;;;;10.86;51.97;100878.83;108272;1253;60093;-66
2023/03/20 08:31:19;;;;;;;;;;;;;;;10.94;51.26;100877.41;108283;1253;61982;-66
2023/03/20 08:33:47;;;;;;;;;;;;;;;11.07;50.92;100875.41;108295;1254;74854;-66
2023/03/20 08:36:18;;;;;;;;;;;;;;;11.19;50.40;100878.79;108330;1254;73792;-68
2023/03/20 08:38:47;;;;;;;;;;;;;;;11.30;49.76;100877.19;108275;1254;73541;-68
2023/03/20 08:41:17;;;;;;;;;;;;;;;11.45;49.17;100878.48;108240;1254;61484;-66
2023/03/20 08:43:46;;;;;;;;;;;;;;;11.56;48.36;100873.81;108034;1254;61212;-68
2023/03/20 08:46:15;;;;;;;;;;;;;;;11.61;47.94;100869.09;108241;1254;75851;-66
2023/03/20 08:48:43;;;;;;;;;;;;;;;11.71;47.68;100871.52;108278;1254;72842;-66
2023/03/20 08:51:13;;;;;;;;;;;;;;;11.79;47.39;100873.45;108273;1257;73737;-66
2023/03/20 08:53:41;;;;;;;;;;;;;;;11.90;47.06;100867.67;108253;1254;61362;-67
2023/03/20 08:56:10;;;;;;;;;;;;;;;12.04;46.83;100864.38;108187;1253;61305;-67
2023/03/20 08:58:39;;;;;;;;;;;;;;;12.14;46.68;100862.14;108215;1254;75300;-67
2023/03/20 09:01:07;;;;;;;;;;;;;;;12.26;46.60;100855.77;108202;1254;73028;-67
2023/03/20 09:03:37;;;;;;;;;;;;;;;12.39;45.82;100850.30;108281;1258;72515;-66
2023/03/20 09:06:06;;;;;;;;;;;;;;;12.49;44.85;100851.70;108217;1254;61231;-66
2023/03/20 09:08:43;;;;;;;;;;;;;;;12.54;44.28;100849.04;108161;1254;61126;-67
2023/03/20 09:11:11;;;;;;;;;;;;;;;12.58;43.26;100848.78;108223;1258;76310;-66
2023/03/20 09:13:40;;;;;;;;;;;;;;;12.60;42.60;100845.41;108306;1254;74052;-66
2023/03/20 09:16:08;;;;;;;;;;;;;;;12.61;42.07;100840.16;108226;1254;73215;-68
2023/03/20 09:18:38;;;;;;;;;;;;;;;12.58;41.43;100834.36;108172;1254;61810;-66
2023/03/20 09:21:06;;;;;;;;;;;;;;;12.54;41.03;100830.06;104372;1254;61057;-65
2023/03/20 09:23:35;;;;;;;;;;;;;;;12.54;40.91;100827.60;108194;1254;71971;-67
2023/03/20 09:26:04;;;;;;;;;;;;;;;12.59;40.86;100824.02;108198;1254;72178;-67
2023/03/20 09:28:34;;;;;;;;;;;;;;;12.66;40.63;100822.75;108306;1254;59993;-66
2023/03/20 09:31:02;;;;;;;;;;;;;;;12.72;40.07;100818.86;108635;1254;61160;-65
2023/03/20 09:33:31;;;;;;;;;;;;;;;12.78;39.59;100813.40;108133;1253;75264;-66
2023/03/20 09:35:59;;;;;;;;;;;;;;;12.86;39.63;100813.58;108255;1254;72620;-64
2023/03/20 09:38:28;;;;;;;;;;;;;;;12.97;39.67;100813.81;108220;1254;71972;-64
2023/03/20 09:40:58;;;;;;;;;;;;;;;13.07;39.31;100809.05;108119;1254;61180;-65
2023/03/20 09:44:01;;;;;;;;;;;;;;;13.14;39.38;100808.63;108196;1254;61151;-65
2023/03/20 09:46:36;;;;;;;;;;;;;;;13.24;39.33;100806.44;107531;1262;75959;-66
2023/03/20 09:49:11;;;;;;;;;;;;;;;13.33;39.33;100807.05;108049;1254;73806;-65
2023/03/20 09:51:44;;;;;;;;;;;;;;;13.37;39.55;100806.19;108157;1254;73628;-64
2023/03/20 09:54:34;;;;;;;;;;;;;;;13.37;39.83;100803.23;108203;1254;61140;-65
2023/03/20 09:57:20;;;;;;;;;;;;;;;13.41;39.95;100801.30;108094;1254;61231;-65
2023/03/20 09:59:49;;;;;;;;;;;;;;;13.45;39.71;100795.66;108196;1254;73874;-66
2023/03/20 10:02:23;;;;;;;;;;;;;;;13.48;39.82;100797.31;108072;1254;73169;-67
2023/03/20 10:04:52;;;;;;;;;;;;;;;13.51;40.02;100789.70;108170;1254;71701;-67
2023/03/20 10:07:20;;;;;;;;;;;;;;;13.52;39.84;100781.82;108250;1254;61316;-66
2023/03/20 10:09:50;;;;;;;;;;;;;;;13.51;39.90;100778.96;108184;1254;61787;-66
2023/03/20 10:12:19;;;;;;;;;;;;;;;13.51;40.15;100780.85;108315;1258;75608;-67
2023/03/20 10:15:07;;;;;;;;;;;;;;;13.55;40.26;100771.23;108294;1254;72231;-67
2023/03/20 10:17:39;;;;;;;;;;;;;;;13.66;40.29;100771.90;108257;1254;72137;-67
2023/03/20 10:20:13;;;;;;;;;;;;;;;13.75;39.87;100767.27;108254;1258;61084;-66
2023/03/20 10:22:49;;;;;;;;;;;;;;;13.78;39.82;100761.89;108213;1254;61341;-69
2023/03/20 10:25:21;;;;;;;;;;;;;;;13.83;39.74;100759.50;108317;1254;74325;-68
2023/03/20 10:27:55;;;;;;;;;;;;;;;13.91;39.51;100755.73;108311;1254;72318;-66
2023/03/20 10:30:30;;;;;;;;;;;;;;;13.93;39.26;100750.55;108317;1254;72745;-66
2023/03/20 10:33:09;;;;;;;;;;;;;;;13.99;39.54;100744.95;108287;1254;61122;-67
2023/03/20 10:35:41;;;;;;;;;;;;;;;14.07;39.41;100748.40;108262;1254;61231;-65
2023/03/20 10:38:19;;;;;;;;;;;;;;;14.14;39.35;100748.55;108293;1254;74441;-66
2023/03/20 10:41:00;;;;;;;;;;;;;;;14.20;39.10;100741.31;108284;1254;72204;-67
2023/03/20 10:43:42;;;;;;;;;;;;;;;14.24;38.88;100736.02;108277;1254;72464;-66
2023/03/20 10:46:27;;;;;;;;;;;;;;;14.29;38.92;100732.29;108269;1253;61332;-65
2023/03/20 10:48:57;;;;;;;;;;;;;;;14.31;38.52;100723.20;108241;1254;61231;-65
2023/03/20 10:51:45;;;;;;;;;;;;;;;14.28;38.55;100724.13;108308;1254;74566;-67
2023/03/20 10:54:25;;;;;;;;;;;;;;;14.26;38.56;100716.41;108325;1254;73964;-66
2023/03/20 10:56:55;;;;;;;;;;;;;;;14.26;38.54;100715.98;108308;1254;72324;-66
2023/03/20 10:59:23;;;;;;;;;;;;;;;14.25;38.58;100704.60;108306;1254;61324;-66
2023/03/20 11:01:52;;;;;;;;;;;;;;;14.25;38.73;100704.38;108279;1254;61016;-65
2023/03/20 11:04:21;;;;;;;;;;;;;;;14.32;38.84;100702.83;108270;1253;74289;-65
2023/03/20 11:06:58;;;;;;;;;;;;;;;14.42;38.87;100704.80;108224;1254;72313;-67
2023/03/20 11:09:28;;;;;;;;;;;;;;;14.51;38.82;100702.45;108229;1254;73748;-68
2023/03/20 11:11:57;;;;;;;;;;;;;;;14.58;38.20;100705.27;108223;1254;61224;-66
2023/03/20 11:14:34;;;;;;;;;;;;;;;14.63;38.22;100702.80;108270;1254;61089;-67
2023/03/20 11:17:02;;;;;;;;;;;;;;;14.68;38.20;100701.85;108279;1254;73473;-66
2023/03/20 11:19:32;;;;;;;;;;;;;;;14.71;37.82;100694.09;108268;1254;72652;-66
2023/03/20 11:22:08;;;;;;;;;;;;;;;14.74;37.87;100689.44;108244;1254;73886;-66
2023/03/20 11:24:39;;;;;;;;;;;;;;;14.76;37.64;100687.38;108218;1254;61202;-66
2023/03/20 11:27:14;;;;;;;;;;;;;;;14.76;37.91;100685.84;108245;1259;61208;-65
2023/03/20 11:29:47;;;;;;;;;;;;;;;14.81;38.00;100681.33;108208;1258;74896;-67
2023/03/20 11:32:16;;;;;;;;;;;;;;;14.86;38.17;100679.03;108243;1257;73032;-66
2023/03/20 11:34:44;;;;;;;;;;;;;;;14.87;38.04;100672.18;108185;1258;71970;-66
2023/03/20 11:37:24;;;;;;;;;;;;;;;14.88;37.97;100670.29;108243;1254;61696;-67
2023/03/20 11:40:00;;;;;;;;;;;;;;;14.89;37.67;100667.86;108263;1259;61317;-67
2023/03/20 11:42:29;;;;;;;;;;;;;;;14.85;37.69;100663.77;108237;1254;74904;-69
2023/03/20 11:44:58;;;;;;;;;;;;;;;14.83;37.83;100660.54;108200;1257;74446;-66
2023/03/20 11:47:35;;;;;;;;;;;;;;;14.84;37.60;100657.58;108237;1254;72893;-66
2023/03/20 11:50:06;;;;;;;;;;;;;;;14.90;37.64;100657.15;108228;1254;61282;-66
2023/03/20 11:52:35;;;;;;;;;;;;;;;14.95;37.65;100653.17;108269;1253;61217;-66
2023/03/20 11:55:06;;;;;;;;;;;;;;;15.03;37.62;100649.38;108212;1258;72722;-66
2023/03/20 11:57:39;;;;;;;;;;;;;;;15.07;37.48;100648.70;108158;1258;73146;-65
2023/03/20 12:00:19;;;;;;;;;;;;;;;15.09;37.24;100639.36;108170;1255;72886;-65
2023/03/20 12:02:48;;;;;;;;;;;;;;;15.12;37.13;100640.73;108223;1255;61285;-66
2023/03/20 12:05:32;;;;;;;;;;;;;;;15.16;37.09;100638.54;108229;1254;61128;-67
2023/03/20 12:08:04;;;;;;;;;;;;;;;15.22;37.08;100639.13;108179;1253;73213;-67
2023/03/20 12:10:38;;;;;;;;;;;;;;;15.29;37.06;100632.43;108161;1257;73848;-65
2023/03/20 12:13:11;;;;;;;;;;;;;;;15.38;36.91;100626.79;108116;1254;73203;-65
2023/03/20 12:15:45;;;;;;;;;;;;;;;15.43;36.58;100621.30;108174;1254;61241;-66
2023/03/20 12:18:35;;;;;;;;;;;;;;;15.41;36.74;100623.14;108276;1254;61150;-66
2023/03/20 12:21:19;;;;;;;;;;;;;;;15.36;36.95;100621.10;108182;1255;72878;-64
2023/03/20 12:23:50;;;;;;;;;;;;;;;15.38;37.05;100616.50;108167;1254;72012;-66
2023/03/20 12:26:55;;;;;;;;;;;;;;;15.41;36.59;100613.66;108123;1254;73499;-65
2023/03/20 12:29:43;;;;;;;;;;;;;;;15.35;36.63;100607.13;108130;1253;61231;-66
2023/03/20 12:32:15;;;;;;;;;;;;;;;15.36;36.71;100604.96;108164;1254;61073;-66
2023/03/20 12:34:51;;;;;;;;;;;;;;;15.43;36.56;100598.58;108146;1254;73833;-66
2023/03/20 12:37:20;;;;;;;;;;;;;;;15.51;36.58;100591.20;108156;1259;71198;-66
2023/03/20 12:39:50;;;;;;;;;;;;;;;15.58;36.22;100586.27;108186;1257;72133;-66
2023/03/20 12:42:21;;;;;;;;;;;;;;;15.61;36.24;100588.60;108220;1254;61227;-66
2023/03/20 12:44:51;;;;;;;;;;;;;;;15.61;36.32;100590.11;108179;1254;61110;-66
2023/03/20 12:47:39;;;;;;;;;;;;;;;15.65;36.27;100586.83;108134;1259;74857;-66
2023/03/20 12:50:27;;;;;;;;;;;;;;;15.66;36.24;100584.04;108157;1253;73279;-68
2023/03/20 12:53:08;;;;;;;;;;;;;;;15.61;36.12;100577.30;108210;1259;72892;-66
2023/03/20 12:55:45;;;;;;;;;;;;;;;15.55;36.32;100574.46;108247;1254;61234;-66
2023/03/20 12:58:22;;;;;;;;;;;;;;;15.51;36.39;100573.92;108228;1254;61131;-66
2023/03/20 13:00:58;;;;;;;;;;;;;;;15.54;36.18;100566.41;108116;1254;75577;-67
2023/03/20 13:03:32;;;;;;;;;;;;;;;15.59;36.34;100566.06;108120;1254;73889;-66
2023/03/20 13:06:06;;;;;;;;;;;;;;;15.70;36.28;100558.81;108095;1254;73527;-66
2023/03/20 13:09:08;;;;;;;;;;;;;;;15.79;36.07;100557.68;108115;1259;61090;-67
2023/03/20 13:11:45;;;;;;;;;;;;;;;15.76;35.63;100552.77;107842;1254;60256;-66
2023/03/20 13:14:26;;;;;;;;;;;;;;;15.71;35.67;100554.19;108169;1254;72776;-67